sensor_id;sensor_type;location;lat;lon;timestamp;P1;durP1;ratioP1;P2;durP2;ratioP2
17482;SDS011;8858;52.308;20.994;2023-07-08T00:01:16;11.47;;;5.47;;
17482;SDS011;8858;52.308;20.994;2023-07-08T00:03:46;13.67;;;5.47;;
17482;SDS011;8858;52.308;20.994;2023-07-08T00:06:17;12.90;;;5.10;;
17482;SDS011;8858;52.308;20.994;2023-07-08T00:08:48;10.10;;;5.17;;
17482;SDS011;8858;52.308;20.994;2023-07-08T00:11:20;7.50;;;5.43;;
17482;SDS011;8858;52.308;20.994;2023-07-08T00:13:48;9.47;;;5.13;;
17482;SDS011;8858;52.308;20.994;2023-07-08T00:16:18;8.80;;;5.37;;
17482;SDS011;8858;52.308;20.994;2023-07-08T00:18:47;9.80;;;5.63;;
17482;SDS011;8858;52.308;20.994;2023-07-08T00:21:17;10.33;;;5.27;;
17482;SDS011;8858;52.308;20.994;2023-07-08T00:23:48;10.97;;;5.97;;
17482;SDS011;8858;52.308;20.994;2023-07-08T00:26:19;8.93;;;6.47;;
17482;SDS011;8858;52.308;20.994;2023-07-08T00:28:50;12.33;;;6.50;;
17482;SDS011;8858;52.308;20.994;2023-07-08T00:31:20;7.10;;;5.60;;
17482;SDS011;8858;52.308;20.994;2023-07-08T00:33:51;8.73;;;5.97;;
17482;SDS011;8858;52.308;20.994;2023-07-08T00:36:25;8.43;;;6.10;;
17482;SDS011;8858;52.308;20.994;2023-07-08T00:38:55;7.57;;;5.80;;
17482;SDS011;8858;52.308;20.994;2023-07-08T00:41:25;8.63;;;5.67;;
17482;SDS011;8858;52.308;20.994;2023-07-08T00:43:57;9.97;;;5.90;;
17482;SDS011;8858;52.308;20.994;2023-07-08T00:46:31;8.37;;;5.77;;
17482;SDS011;8858;52.308;20.994;2023-07-08T00:49:23;10.97;;;6.50;;
17482;SDS011;8858;52.308;20.994;2023-07-08T00:54:48;6.87;;;5.90;;
17482;SDS011;8858;52.308;20.994;2023-07-08T00:57:18;11.23;;;6.03;;
17482;SDS011;8858;52.308;20.994;2023-07-08T00:59:48;13.90;;;6.73;;
17482;SDS011;8858;52.308;20.994;2023-07-08T01:02:21;10.13;;;5.90;;
17482;SDS011;8858;52.308;20.994;2023-07-08T01:04:56;10.30;;;6.23;;
17482;SDS011;8858;52.308;20.994;2023-07-08T01:07:31;9.70;;;6.20;;
17482;SDS011;8858;52.308;20.994;2023-07-08T01:10:02;10.97;;;5.63;;
17482;SDS011;8858;52.308;20.994;2023-07-08T01:12:34;7.10;;;5.87;;
17482;SDS011;8858;52.308;20.994;2023-07-08T01:15:05;9.60;;;5.80;;
17482;SDS011;8858;52.308;20.994;2023-07-08T01:17:38;8.43;;;6.00;;
17482;SDS011;8858;52.308;20.994;2023-07-08T01:20:08;8.27;;;6.00;;
17482;SDS011;8858;52.308;20.994;2023-07-08T01:22:41;7.90;;;6.43;;
17482;SDS011;8858;52.308;20.994;2023-07-08T01:25:11;8.57;;;5.90;;
17482;SDS011;8858;52.308;20.994;2023-07-08T01:27:42;8.37;;;6.00;;
17482;SDS011;8858;52.308;20.994;2023-07-08T01:30:14;7.07;;;6.00;;
17482;SDS011;8858;52.308;20.994;2023-07-08T01:32:47;9.73;;;6.60;;
17482;SDS011;8858;52.308;20.994;2023-07-08T01:35:17;7.17;;;6.03;;
17482;SDS011;8858;52.308;20.994;2023-07-08T01:37:49;11.80;;;6.30;;
17482;SDS011;8858;52.308;20.994;2023-07-08T01:40:26;7.07;;;6.33;;
17482;SDS011;8858;52.308;20.994;2023-07-08T01:43:00;7.50;;;6.17;;
17482;SDS011;8858;52.308;20.994;2023-07-08T01:45:34;11.60;;;6.50;;
17482;SDS011;8858;52.308;20.994;2023-07-08T01:48:10;12.40;;;6.87;;
17482;SDS011;8858;52.308;20.994;2023-07-08T01:50:42;11.23;;;6.30;;
17482;SDS011;8858;52.308;20.994;2023-07-08T01:53:21;13.53;;;6.83;;
17482;SDS011;8858;52.308;20.994;2023-07-08T01:55:55;11.93;;;6.63;;
17482;SDS011;8858;52.308;20.994;2023-07-08T01:58:24;8.60;;;6.40;;
17482;SDS011;8858;52.308;20.994;2023-07-08T02:00:54;12.27;;;8.63;;
17482;SDS011;8858;52.308;20.994;2023-07-08T02:03:23;11.60;;;9.73;;
17482;SDS011;8858;52.308;20.994;2023-07-08T02:05:54;10.07;;;6.83;;
17482;SDS011;8858;52.308;20.994;2023-07-08T02:08:24;10.83;;;6.77;;
17482;SDS011;8858;52.308;20.994;2023-07-08T02:10:54;7.80;;;6.70;;
17482;SDS011;8858;52.308;20.994;2023-07-08T02:13:25;11.50;;;6.80;;
17482;SDS011;8858;52.308;20.994;2023-07-08T02:15:54;8.27;;;6.23;;
17482;SDS011;8858;52.308;20.994;2023-07-08T02:18:23;10.10;;;6.70;;
17482;SDS011;8858;52.308;20.994;2023-07-08T02:20:51;9.73;;;6.47;;
17482;SDS011;8858;52.308;20.994;2023-07-08T02:23:22;9.50;;;6.43;;
17482;SDS011;8858;52.308;20.994;2023-07-08T02:25:58;8.20;;;6.20;;
17482;SDS011;8858;52.308;20.994;2023-07-08T02:28:28;7.17;;;6.47;;
17482;SDS011;8858;52.308;20.994;2023-07-08T02:31:01;7.23;;;6.03;;
17482;SDS011;8858;52.308;20.994;2023-07-08T02:33:30;10.40;;;6.23;;
17482;SDS011;8858;52.308;20.994;2023-07-08T02:36:00;7.00;;;6.17;;
17482;SDS011;8858;52.308;20.994;2023-07-08T02:38:30;7.20;;;6.27;;
17482;SDS011;8858;52.308;20.994;2023-07-08T02:40:59;10.40;;;6.47;;
17482;SDS011;8858;52.308;20.994;2023-07-08T02:43:28;7.50;;;6.77;;
17482;SDS011;8858;52.308;20.994;2023-07-08T02:45:58;9.60;;;6.37;;
17482;SDS011;8858;52.308;20.994;2023-07-08T02:48:27;7.80;;;6.00;;
17482;SDS011;8858;52.308;20.994;2023-07-08T02:50:58;8.43;;;6.40;;
17482;SDS011;8858;52.308;20.994;2023-07-08T02:53:27;9.00;;;7.10;;
17482;SDS011;8858;52.308;20.994;2023-07-08T02:55:57;9.97;;;7.27;;
17482;SDS011;8858;52.308;20.994;2023-07-08T02:58:25;11.20;;;7.77;;
17482;SDS011;8858;52.308;20.994;2023-07-08T03:00:54;8.33;;;7.53;;
17482;SDS011;8858;52.308;20.994;2023-07-08T03:03:26;11.23;;;8.07;;
17482;SDS011;8858;52.308;20.994;2023-07-08T03:05:56;9.67;;;7.47;;
17482;SDS011;8858;52.308;20.994;2023-07-08T03:08:27;9.27;;;7.50;;
17482;SDS011;8858;52.308;20.994;2023-07-08T03:10:58;10.63;;;7.20;;
17482;SDS011;8858;52.308;20.994;2023-07-08T03:13:30;10.07;;;7.60;;
17482;SDS011;8858;52.308;20.994;2023-07-08T03:16:00;11.00;;;7.30;;
17482;SDS011;8858;52.308;20.994;2023-07-08T03:18:29;9.70;;;7.53;;
17482;SDS011;8858;52.308;20.994;2023-07-08T03:20:58;8.80;;;7.37;;
17482;SDS011;8858;52.308;20.994;2023-07-08T03:23:26;7.83;;;6.67;;
17482;SDS011;8858;52.308;20.994;2023-07-08T03:25:57;9.50;;;7.77;;
17482;SDS011;8858;52.308;20.994;2023-07-08T03:28:27;10.80;;;7.37;;
17482;SDS011;8858;52.308;20.994;2023-07-08T03:30:55;8.30;;;6.90;;
17482;SDS011;8858;52.308;20.994;2023-07-08T03:33:24;10.13;;;7.70;;
17482;SDS011;8858;52.308;20.994;2023-07-08T03:35:53;10.43;;;7.80;;
17482;SDS011;8858;52.308;20.994;2023-07-08T03:38:25;14.13;;;9.90;;
17482;SDS011;8858;52.308;20.994;2023-07-08T03:40:54;13.77;;;9.40;;
17482;SDS011;8858;52.308;20.994;2023-07-08T03:43:24;12.03;;;9.23;;
17482;SDS011;8858;52.308;20.994;2023-07-08T03:45:53;15.93;;;9.57;;
17482;SDS011;8858;52.308;20.994;2023-07-08T03:48:24;12.40;;;9.13;;
17482;SDS011;8858;52.308;20.994;2023-07-08T03:50:53;12.17;;;8.97;;
17482;SDS011;8858;52.308;20.994;2023-07-08T03:53:23;12.50;;;8.80;;
17482;SDS011;8858;52.308;20.994;2023-07-08T03:55:52;11.23;;;8.57;;
17482;SDS011;8858;52.308;20.994;2023-07-08T03:58:21;11.83;;;8.53;;
17482;SDS011;8858;52.308;20.994;2023-07-08T04:00:53;12.70;;;9.13;;
17482;SDS011;8858;52.308;20.994;2023-07-08T04:03:22;13.20;;;8.43;;
17482;SDS011;8858;52.308;20.994;2023-07-08T04:05:51;14.17;;;9.20;;
17482;SDS011;8858;52.308;20.994;2023-07-08T04:08:19;12.57;;;9.80;;
17482;SDS011;8858;52.308;20.994;2023-07-08T04:10:48;11.63;;;9.10;;
17482;SDS011;8858;52.308;20.994;2023-07-08T04:13:17;9.93;;;8.57;;
17482;SDS011;8858;52.308;20.994;2023-07-08T04:15:51;13.90;;;8.90;;
17482;SDS011;8858;52.308;20.994;2023-07-08T04:18:29;11.30;;;7.27;;
17482;SDS011;8858;52.308;20.994;2023-07-08T04:20:59;9.03;;;7.07;;
17482;SDS011;8858;52.308;20.994;2023-07-08T04:23:31;9.37;;;7.67;;
17482;SDS011;8858;52.308;20.994;2023-07-08T04:26:00;14.90;;;7.13;;
17482;SDS011;8858;52.308;20.994;2023-07-08T04:28:32;8.53;;;6.50;;
17482;SDS011;8858;52.308;20.994;2023-07-08T04:31:02;11.30;;;6.83;;
17482;SDS011;8858;52.308;20.994;2023-07-08T04:33:31;9.43;;;6.63;;
17482;SDS011;8858;52.308;20.994;2023-07-08T04:35:59;11.43;;;6.20;;
17482;SDS011;8858;52.308;20.994;2023-07-08T04:38:28;9.40;;;6.87;;
17482;SDS011;8858;52.308;20.994;2023-07-08T04:41:01;13.50;;;6.90;;
17482;SDS011;8858;52.308;20.994;2023-07-08T04:43:29;7.93;;;6.67;;
17482;SDS011;8858;52.308;20.994;2023-07-08T04:45:58;8.83;;;6.23;;
17482;SDS011;8858;52.308;20.994;2023-07-08T04:48:28;9.53;;;6.90;;
17482;SDS011;8858;52.308;20.994;2023-07-08T04:50:56;14.07;;;6.60;;
17482;SDS011;8858;52.308;20.994;2023-07-08T04:53:25;10.97;;;7.10;;
17482;SDS011;8858;52.308;20.994;2023-07-08T04:55:55;7.87;;;6.30;;
17482;SDS011;8858;52.308;20.994;2023-07-08T04:58:24;11.60;;;6.70;;
17482;SDS011;8858;52.308;20.994;2023-07-08T05:00:53;10.17;;;6.90;;
17482;SDS011;8858;52.308;20.994;2023-07-08T05:03:21;11.03;;;6.70;;
17482;SDS011;8858;52.308;20.994;2023-07-08T05:05:51;8.57;;;6.83;;
17482;SDS011;8858;52.308;20.994;2023-07-08T05:08:19;10.97;;;6.23;;
17482;SDS011;8858;52.308;20.994;2023-07-08T05:10:49;7.30;;;6.17;;
17482;SDS011;8858;52.308;20.994;2023-07-08T05:13:18;7.80;;;5.83;;
17482;SDS011;8858;52.308;20.994;2023-07-08T05:15:47;10.30;;;6.67;;
17482;SDS011;8858;52.308;20.994;2023-07-08T05:18:16;9.87;;;6.00;;
17482;SDS011;8858;52.308;20.994;2023-07-08T05:20:49;12.77;;;6.53;;
17482;SDS011;8858;52.308;20.994;2023-07-08T05:23:21;9.27;;;5.93;;
17482;SDS011;8858;52.308;20.994;2023-07-08T05:25:51;13.33;;;6.63;;
17482;SDS011;8858;52.308;20.994;2023-07-08T05:28:21;11.70;;;6.47;;
17482;SDS011;8858;52.308;20.994;2023-07-08T05:30:52;10.03;;;6.03;;
17482;SDS011;8858;52.308;20.994;2023-07-08T05:33:22;10.47;;;6.30;;
17482;SDS011;8858;52.308;20.994;2023-07-08T05:35:53;11.83;;;6.17;;
17482;SDS011;8858;52.308;20.994;2023-07-08T05:38:22;10.07;;;5.50;;
17482;SDS011;8858;52.308;20.994;2023-07-08T05:40:55;11.20;;;5.40;;
17482;SDS011;8858;52.308;20.994;2023-07-08T05:43:26;9.35;;;6.30;;
17482;SDS011;8858;52.308;20.994;2023-07-08T05:45:57;8.25;;;5.40;;
17482;SDS011;8858;52.308;20.994;2023-07-08T05:48:37;12.48;;;5.53;;
17482;SDS011;8858;52.308;20.994;2023-07-08T05:51:09;8.48;;;5.22;;
17482;SDS011;8858;52.308;20.994;2023-07-08T05:53:38;7.28;;;4.85;;
17482;SDS011;8858;52.308;20.994;2023-07-08T05:56:06;7.78;;;5.28;;
17482;SDS011;8858;52.308;20.994;2023-07-08T05:58:34;7.75;;;4.90;;
17482;SDS011;8858;52.308;20.994;2023-07-08T06:01:03;7.65;;;5.28;;
17482;SDS011;8858;52.308;20.994;2023-07-08T06:03:32;6.20;;;5.05;;
17482;SDS011;8858;52.308;20.994;2023-07-08T06:06:00;5.93;;;4.47;;
17482;SDS011;8858;52.308;20.994;2023-07-08T06:08:33;10.35;;;4.95;;
17482;SDS011;8858;52.308;20.994;2023-07-08T06:11:02;10.35;;;4.43;;
17482;SDS011;8858;52.308;20.994;2023-07-08T06:13:30;4.20;;;3.70;;
17482;SDS011;8858;52.308;20.994;2023-07-08T06:15:58;6.85;;;3.70;;
17482;SDS011;8858;52.308;20.994;2023-07-08T06:18:27;6.65;;;3.60;;
17482;SDS011;8858;52.308;20.994;2023-07-08T06:20:56;6.35;;;3.80;;
17482;SDS011;8858;52.308;20.994;2023-07-08T06:23:26;6.65;;;3.58;;
17482;SDS011;8858;52.308;20.994;2023-07-08T06:25:57;8.63;;;3.65;;
17482;SDS011;8858;52.308;20.994;2023-07-08T06:28:26;5.57;;;3.40;;
17482;SDS011;8858;52.308;20.994;2023-07-08T06:30:54;3.50;;;3.20;;
17482;SDS011;8858;52.308;20.994;2023-07-08T06:33:23;5.53;;;3.28;;
17482;SDS011;8858;52.308;20.994;2023-07-08T06:35:52;5.00;;;3.15;;
17482;SDS011;8858;52.308;20.994;2023-07-08T06:38:21;6.18;;;3.53;;
17482;SDS011;8858;52.308;20.994;2023-07-08T06:40:51;5.60;;;3.17;;
17482;SDS011;8858;52.308;20.994;2023-07-08T06:43:21;5.20;;;2.80;;
17482;SDS011;8858;52.308;20.994;2023-07-08T06:45:56;4.22;;;2.75;;
17482;SDS011;8858;52.308;20.994;2023-07-08T06:48:26;3.22;;;2.92;;
17482;SDS011;8858;52.308;20.994;2023-07-08T06:50:54;6.03;;;3.60;;
17482;SDS011;8858;52.308;20.994;2023-07-08T06:53:24;5.75;;;2.70;;
17482;SDS011;8858;52.308;20.994;2023-07-08T06:55:52;6.70;;;3.15;;
17482;SDS011;8858;52.308;20.994;2023-07-08T06:58:22;7.55;;;3.70;;
17482;SDS011;8858;52.308;20.994;2023-07-08T07:00:51;4.85;;;3.55;;
17482;SDS011;8858;52.308;20.994;2023-07-08T07:03:20;10.23;;;4.07;;
17482;SDS011;8858;52.308;20.994;2023-07-08T07:05:49;9.15;;;3.40;;
17482;SDS011;8858;52.308;20.994;2023-07-08T07:08:18;4.40;;;3.30;;
17482;SDS011;8858;52.308;20.994;2023-07-08T07:10:46;3.78;;;2.72;;
17482;SDS011;8858;52.308;20.994;2023-07-08T07:13:18;4.43;;;2.33;;
17482;SDS011;8858;52.308;20.994;2023-07-08T07:15:49;6.13;;;2.60;;
17482;SDS011;8858;52.308;20.994;2023-07-08T07:18:18;4.53;;;2.17;;
17482;SDS011;8858;52.308;20.994;2023-07-08T07:20:47;5.30;;;2.30;;
17482;SDS011;8858;52.308;20.994;2023-07-08T07:23:17;4.18;;;2.72;;
17482;SDS011;8858;52.308;20.994;2023-07-08T07:25:46;5.80;;;4.65;;
17482;SDS011;8858;52.308;20.994;2023-07-08T07:28:14;6.35;;;3.10;;
17482;SDS011;8858;52.308;20.994;2023-07-08T07:30:44;2.63;;;1.70;;
17482;SDS011;8858;52.308;20.994;2023-07-08T07:33:14;4.00;;;2.08;;
17482;SDS011;8858;52.308;20.994;2023-07-08T07:35:42;3.92;;;3.60;;
17482;SDS011;8858;52.308;20.994;2023-07-08T07:38:14;3.67;;;2.50;;
17482;SDS011;8858;52.308;20.994;2023-07-08T07:40:43;5.25;;;2.05;;
17482;SDS011;8858;52.308;20.994;2023-07-08T07:43:13;2.40;;;2.17;;
17482;SDS011;8858;52.308;20.994;2023-07-08T07:45:42;2.50;;;2.30;;
17482;SDS011;8858;52.308;20.994;2023-07-08T07:48:11;3.05;;;2.08;;
17482;SDS011;8858;52.308;20.994;2023-07-08T07:50:45;5.05;;;2.35;;
17482;SDS011;8858;52.308;20.994;2023-07-08T07:53:14;2.20;;;2.10;;
17482;SDS011;8858;52.308;20.994;2023-07-08T07:55:42;3.92;;;2.42;;
17482;SDS011;8858;52.308;20.994;2023-07-08T07:58:12;2.28;;;2.10;;
17482;SDS011;8858;52.308;20.994;2023-07-08T08:00:41;4.10;;;2.70;;
17482;SDS011;8858;52.308;20.994;2023-07-08T08:03:11;5.28;;;2.50;;
17482;SDS011;8858;52.308;20.994;2023-07-08T08:05:40;2.63;;;2.20;;
17482;SDS011;8858;52.308;20.994;2023-07-08T08:08:10;1.92;;;1.83;;
17482;SDS011;8858;52.308;20.994;2023-07-08T08:10:38;2.05;;;1.75;;
17482;SDS011;8858;52.308;20.994;2023-07-08T08:13:07;2.53;;;2.00;;
17482;SDS011;8858;52.308;20.994;2023-07-08T08:15:38;1.80;;;1.67;;
17482;SDS011;8858;52.308;20.994;2023-07-08T08:18:06;1.92;;;1.75;;
17482;SDS011;8858;52.308;20.994;2023-07-08T08:20:35;3.67;;;2.10;;
17482;SDS011;8858;52.308;20.994;2023-07-08T08:23:03;1.80;;;1.70;;
17482;SDS011;8858;52.308;20.994;2023-07-08T08:25:34;2.05;;;1.77;;
17482;SDS011;8858;52.308;20.994;2023-07-08T08:28:02;1.80;;;1.60;;
17482;SDS011;8858;52.308;20.994;2023-07-08T08:30:31;1.90;;;1.70;;
17482;SDS011;8858;52.308;20.994;2023-07-08T08:32:59;2.08;;;1.73;;
17482;SDS011;8858;52.308;20.994;2023-07-08T08:35:29;1.75;;;1.65;;
17482;SDS011;8858;52.308;20.994;2023-07-08T08:37:59;2.38;;;1.88;;
17482;SDS011;8858;52.308;20.994;2023-07-08T08:40:29;1.67;;;1.50;;
17482;SDS011;8858;52.308;20.994;2023-07-08T08:43:02;1.58;;;1.45;;
17482;SDS011;8858;52.308;20.994;2023-07-08T08:45:34;1.88;;;1.73;;
17482;SDS011;8858;52.308;20.994;2023-07-08T08:48:10;2.35;;;1.88;;
17482;SDS011;8858;52.308;20.994;2023-07-08T08:50:43;2.38;;;2.03;;
17482;SDS011;8858;52.308;20.994;2023-07-08T08:53:17;3.67;;;2.13;;
17482;SDS011;8858;52.308;20.994;2023-07-08T08:55:50;2.00;;;1.80;;
17482;SDS011;8858;52.308;20.994;2023-07-08T08:58:27;3.05;;;1.95;;
17482;SDS011;8858;52.308;20.994;2023-07-08T09:01:07;3.10;;;2.05;;
17482;SDS011;8858;52.308;20.994;2023-07-08T09:03:42;2.15;;;1.95;;
17482;SDS011;8858;52.308;20.994;2023-07-08T09:06:17;2.30;;;1.67;;
17482;SDS011;8858;52.308;20.994;2023-07-08T09:08:48;1.98;;;1.60;;
17482;SDS011;8858;52.308;20.994;2023-07-08T09:14:15;3.10;;;1.80;;
17482;SDS011;8858;52.308;20.994;2023-07-08T09:16:49;2.10;;;1.90;;
17482;SDS011;8858;52.308;20.994;2023-07-08T09:19:28;2.75;;;1.85;;
17482;SDS011;8858;52.308;20.994;2023-07-08T09:22:01;3.85;;;2.00;;
17482;SDS011;8858;52.308;20.994;2023-07-08T09:24:36;2.22;;;1.92;;
17482;SDS011;8858;52.308;20.994;2023-07-08T09:27:10;4.03;;;1.85;;
17482;SDS011;8858;52.308;20.994;2023-07-08T09:29:39;1.95;;;1.80;;
17482;SDS011;8858;52.308;20.994;2023-07-08T09:32:14;2.08;;;1.67;;
17482;SDS011;8858;52.308;20.994;2023-07-08T09:34:45;4.75;;;2.05;;
17482;SDS011;8858;52.308;20.994;2023-07-08T09:37:25;3.90;;;1.88;;
17482;SDS011;8858;52.308;20.994;2023-07-08T09:39:59;4.15;;;1.98;;
17482;SDS011;8858;52.308;20.994;2023-07-08T09:42:29;2.83;;;1.80;;
17482;SDS011;8858;52.308;20.994;2023-07-08T09:45:03;1.88;;;1.75;;
17482;SDS011;8858;52.308;20.994;2023-07-08T09:47:46;3.15;;;1.88;;
17482;SDS011;8858;52.308;20.994;2023-07-08T09:50:16;2.47;;;1.83;;
17482;SDS011;8858;52.308;20.994;2023-07-08T09:52:47;2.67;;;2.03;;
17482;SDS011;8858;52.308;20.994;2023-07-08T09:55:17;5.03;;;1.60;;
17482;SDS011;8858;52.308;20.994;2023-07-08T09:57:47;2.67;;;1.63;;
17482;SDS011;8858;52.308;20.994;2023-07-08T10:00:28;2.53;;;1.90;;
17482;SDS011;8858;52.308;20.994;2023-07-08T10:03:02;3.38;;;1.90;;
17482;SDS011;8858;52.308;20.994;2023-07-08T10:05:35;2.97;;;1.70;;
17482;SDS011;8858;52.308;20.994;2023-07-08T10:08:10;1.77;;;1.65;;
17482;SDS011;8858;52.308;20.994;2023-07-08T10:10:47;2.13;;;1.92;;
17482;SDS011;8858;52.308;20.994;2023-07-08T10:13:18;2.38;;;1.58;;
17482;SDS011;8858;52.308;20.994;2023-07-08T10:15:54;3.67;;;2.10;;
17482;SDS011;8858;52.308;20.994;2023-07-08T10:18:26;4.93;;;4.07;;
17482;SDS011;8858;52.308;20.994;2023-07-08T10:20:59;6.88;;;2.13;;
17482;SDS011;8858;52.308;20.994;2023-07-08T10:23:35;2.03;;;1.92;;
17482;SDS011;8858;52.308;20.994;2023-07-08T10:26:13;5.63;;;1.90;;
17482;SDS011;8858;52.308;20.994;2023-07-08T10:28:53;1.90;;;1.80;;
17482;SDS011;8858;52.308;20.994;2023-07-08T10:31:32;2.67;;;1.67;;
17482;SDS011;8858;52.308;20.994;2023-07-08T10:34:13;2.08;;;1.75;;
17482;SDS011;8858;52.308;20.994;2023-07-08T10:36:53;4.28;;;1.83;;
17482;SDS011;8858;52.308;20.994;2023-07-08T10:39:41;2.70;;;1.98;;
17482;SDS011;8858;52.308;20.994;2023-07-08T10:45:20;2.95;;;2.10;;
17482;SDS011;8858;52.308;20.994;2023-07-08T10:48:07;3.17;;;1.70;;
17482;SDS011;8858;52.308;20.994;2023-07-08T10:50:51;3.85;;;2.13;;
17482;SDS011;8858;52.308;20.994;2023-07-08T10:53:34;2.60;;;1.70;;
17482;SDS011;8858;52.308;20.994;2023-07-08T10:56:15;2.97;;;1.92;;
17482;SDS011;8858;52.308;20.994;2023-07-08T10:58:56;2.20;;;1.80;;
17482;SDS011;8858;52.308;20.994;2023-07-08T11:01:43;1.95;;;1.85;;
17482;SDS011;8858;52.308;20.994;2023-07-08T11:04:24;5.07;;;1.80;;
17482;SDS011;8858;52.308;20.994;2023-07-08T11:07:16;2.00;;;1.90;;
17482;SDS011;8858;52.308;20.994;2023-07-08T11:09:54;2.20;;;1.80;;
17482;SDS011;8858;52.308;20.994;2023-07-08T11:12:26;2.67;;;1.90;;
17482;SDS011;8858;52.308;20.994;2023-07-08T11:15:01;4.40;;;2.08;;
17482;SDS011;8858;52.308;20.994;2023-07-08T11:17:35;2.72;;;2.35;;
17482;SDS011;8858;52.308;20.994;2023-07-08T11:20:13;2.95;;;2.10;;
17482;SDS011;8858;52.308;20.994;2023-07-08T11:22:47;3.00;;;2.00;;
17482;SDS011;8858;52.308;20.994;2023-07-08T11:25:18;3.25;;;2.00;;
17482;SDS011;8858;52.308;20.994;2023-07-08T11:27:49;2.03;;;1.92;;
17482;SDS011;8858;52.308;20.994;2023-07-08T11:30:22;2.30;;;1.95;;
17482;SDS011;8858;52.308;20.994;2023-07-08T11:32:57;4.38;;;2.00;;
17482;SDS011;8858;52.308;20.994;2023-07-08T11:35:32;2.47;;;2.28;;
17482;SDS011;8858;52.308;20.994;2023-07-08T11:38:04;3.50;;;2.05;;
17482;SDS011;8858;52.308;20.994;2023-07-08T11:40:36;2.40;;;2.20;;
17482;SDS011;8858;52.308;20.994;2023-07-08T11:43:18;2.97;;;1.90;;
17482;SDS011;8858;52.308;20.994;2023-07-08T11:45:48;4.20;;;2.10;;
17482;SDS011;8858;52.308;20.994;2023-07-08T11:48:21;4.35;;;2.10;;
17482;SDS011;8858;52.308;20.994;2023-07-08T11:50:55;2.38;;;2.10;;
17482;SDS011;8858;52.308;20.994;2023-07-08T11:53:36;2.00;;;1.90;;
17482;SDS011;8858;52.308;20.994;2023-07-08T11:56:18;4.80;;;2.72;;
17482;SDS011;8858;52.308;20.994;2023-07-08T11:58:53;5.38;;;2.33;;
17482;SDS011;8858;52.308;20.994;2023-07-08T12:01:32;9.43;;;2.85;;
17482;SDS011;8858;52.308;20.994;2023-07-08T12:04:20;5.10;;;2.05;;
17482;SDS011;8858;52.308;20.994;2023-07-08T12:09:48;3.38;;;2.17;;
17482;SDS011;8858;52.308;20.994;2023-07-08T12:12:25;2.10;;;1.90;;
17482;SDS011;8858;52.308;20.994;2023-07-08T12:15:04;6.65;;;2.40;;
17482;SDS011;8858;52.308;20.994;2023-07-08T12:17:41;2.80;;;2.40;;
17482;SDS011;8858;52.308;20.994;2023-07-08T12:20:16;3.47;;;2.20;;
17482;SDS011;8858;52.308;20.994;2023-07-08T12:22:50;3.05;;;2.05;;
17482;SDS011;8858;52.308;20.994;2023-07-08T12:25:20;2.97;;;2.08;;
17482;SDS011;8858;52.308;20.994;2023-07-08T12:27:51;3.75;;;2.30;;
17482;SDS011;8858;52.308;20.994;2023-07-08T12:30:19;6.43;;;2.47;;
17482;SDS011;8858;52.308;20.994;2023-07-08T12:32:48;4.30;;;2.15;;
17482;SDS011;8858;52.308;20.994;2023-07-08T12:35:20;2.13;;;1.98;;
17482;SDS011;8858;52.308;20.994;2023-07-08T12:37:53;3.20;;;2.13;;
17482;SDS011;8858;52.308;20.994;2023-07-08T12:40:26;2.72;;;1.95;;
17482;SDS011;8858;52.308;20.994;2023-07-08T12:42:57;3.10;;;2.10;;
17482;SDS011;8858;52.308;20.994;2023-07-08T12:45:29;2.10;;;2.00;;
17482;SDS011;8858;52.308;20.994;2023-07-08T12:47:58;2.80;;;2.00;;
17482;SDS011;8858;52.308;20.994;2023-07-08T12:50:29;4.07;;;2.28;;
17482;SDS011;8858;52.308;20.994;2023-07-08T12:52:59;2.10;;;2.00;;
17482;SDS011;8858;52.308;20.994;2023-07-08T12:55:31;2.47;;;2.22;;
17482;SDS011;8858;52.308;20.994;2023-07-08T12:58:01;2.30;;;2.10;;
17482;SDS011;8858;52.308;20.994;2023-07-08T13:00:31;2.25;;;2.08;;
17482;SDS011;8858;52.308;20.994;2023-07-08T13:03:12;1.83;;;1.73;;
17482;SDS011;8858;52.308;20.994;2023-07-08T13:05:44;2.33;;;2.10;;
17482;SDS011;8858;52.308;20.994;2023-07-08T13:08:19;4.10;;;2.13;;
17482;SDS011;8858;52.308;20.994;2023-07-08T13:10:50;2.10;;;2.00;;
17482;SDS011;8858;52.308;20.994;2023-07-08T13:13:21;4.40;;;2.03;;
17482;SDS011;8858;52.308;20.994;2023-07-08T13:15:51;3.40;;;2.15;;
17482;SDS011;8858;52.308;20.994;2023-07-08T13:18:23;2.25;;;2.13;;
17482;SDS011;8858;52.308;20.994;2023-07-08T13:20:57;3.60;;;2.08;;
17482;SDS011;8858;52.308;20.994;2023-07-08T13:23:31;2.05;;;1.90;;
17482;SDS011;8858;52.308;20.994;2023-07-08T13:26:11;2.72;;;1.80;;
17482;SDS011;8858;52.308;20.994;2023-07-08T13:28:41;2.08;;;1.95;;
17482;SDS011;8858;52.308;20.994;2023-07-08T13:31:13;2.30;;;2.10;;
17482;SDS011;8858;52.308;20.994;2023-07-08T13:33:50;2.97;;;2.33;;
17482;SDS011;8858;52.308;20.994;2023-07-08T13:36:21;2.15;;;1.85;;
17482;SDS011;8858;52.308;20.994;2023-07-08T13:38:53;2.00;;;1.90;;
17482;SDS011;8858;52.308;20.994;2023-07-08T13:41:23;2.13;;;2.03;;
17482;SDS011;8858;52.308;20.994;2023-07-08T13:43:52;2.00;;;1.90;;
17482;SDS011;8858;52.308;20.994;2023-07-08T13:46:26;1.90;;;1.80;;
17482;SDS011;8858;52.308;20.994;2023-07-08T13:49:00;4.15;;;1.80;;
17482;SDS011;8858;52.308;20.994;2023-07-08T13:51:34;2.50;;;1.80;;
17482;SDS011;8858;52.308;20.994;2023-07-08T13:54:12;3.60;;;1.85;;
17482;SDS011;8858;52.308;20.994;2023-07-08T13:56:43;2.80;;;2.28;;
17482;SDS011;8858;52.308;20.994;2023-07-08T13:59:18;3.72;;;1.75;;
17482;SDS011;8858;52.308;20.994;2023-07-08T14:01:50;4.60;;;2.42;;
17482;SDS011;8858;52.308;20.994;2023-07-08T14:04:21;2.28;;;2.10;;
17482;SDS011;8858;52.308;20.994;2023-07-08T14:06:58;2.00;;;1.88;;
17482;SDS011;8858;52.308;20.994;2023-07-08T14:09:28;2.10;;;1.90;;
17482;SDS011;8858;52.308;20.994;2023-07-08T14:11:57;2.42;;;2.00;;
17482;SDS011;8858;52.308;20.994;2023-07-08T14:14:25;1.90;;;1.70;;
17482;SDS011;8858;52.308;20.994;2023-07-08T14:16:54;2.25;;;2.05;;
17482;SDS011;8858;52.308;20.994;2023-07-08T14:19:26;2.30;;;2.10;;
17482;SDS011;8858;52.308;20.994;2023-07-08T14:21:59;2.33;;;2.13;;
17482;SDS011;8858;52.308;20.994;2023-07-08T14:24:30;3.00;;;1.98;;
17482;SDS011;8858;52.308;20.994;2023-07-08T14:26:58;4.25;;;2.50;;
17482;SDS011;8858;52.308;20.994;2023-07-08T14:29:28;4.72;;;2.28;;
17482;SDS011;8858;52.308;20.994;2023-07-08T14:31:57;2.65;;;2.00;;
17482;SDS011;8858;52.308;20.994;2023-07-08T14:34:27;3.97;;;2.00;;
17482;SDS011;8858;52.308;20.994;2023-07-08T14:36:55;1.90;;;1.75;;
17482;SDS011;8858;52.308;20.994;2023-07-08T14:39:29;4.10;;;1.75;;
17482;SDS011;8858;52.308;20.994;2023-07-08T14:41:59;1.80;;;1.70;;
17482;SDS011;8858;52.308;20.994;2023-07-08T14:44:32;2.03;;;1.92;;
17482;SDS011;8858;52.308;20.994;2023-07-08T14:47:07;2.55;;;2.13;;
17482;SDS011;8858;52.308;20.994;2023-07-08T14:49:38;2.25;;;2.05;;
17482;SDS011;8858;52.308;20.994;2023-07-08T14:52:12;2.75;;;2.03;;
17482;SDS011;8858;52.308;20.994;2023-07-08T14:54:42;2.20;;;2.00;;
17482;SDS011;8858;52.308;20.994;2023-07-08T14:57:12;3.97;;;1.90;;
17482;SDS011;8858;52.308;20.994;2023-07-08T14:59:46;3.22;;;1.85;;
17482;SDS011;8858;52.308;20.994;2023-07-08T15:02:18;2.60;;;2.00;;
17482;SDS011;8858;52.308;20.994;2023-07-08T15:04:49;2.17;;;1.63;;
17482;SDS011;8858;52.308;20.994;2023-07-08T15:07:20;5.03;;;1.90;;
17482;SDS011;8858;52.308;20.994;2023-07-08T15:09:50;2.92;;;2.00;;
17482;SDS011;8858;52.308;20.994;2023-07-08T15:12:19;3.85;;;2.10;;
17482;SDS011;8858;52.308;20.994;2023-07-08T15:14:48;3.42;;;1.88;;
17482;SDS011;8858;52.308;20.994;2023-07-08T15:17:17;2.20;;;1.80;;
17482;SDS011;8858;52.308;20.994;2023-07-08T15:19:46;2.13;;;1.90;;
17482;SDS011;8858;52.308;20.994;2023-07-08T15:22:15;2.38;;;2.08;;
17482;SDS011;8858;52.308;20.994;2023-07-08T15:24:43;2.03;;;1.80;;